Time;durP1;ratioP1;P1;durP2;ratioP2;P2;SDS_P1;SDS_P2;PMS_P1;PMS_P2;Temp;Humidity;BMP_temperature;BMP_pressure;BME280_temperature;BME280_humidity;BME280_pressure;Samples;Min_cycle;Max_cycle;Signal;HPM_P1;HPM_P2
2021/12/17 00:00:59;;;;;;;28.07;11.80;;;;;;;;;;4969649;28;20023;-74
2021/12/17 00:03:52;;;;;;;34.70;12.57;;;;;;;;;;4969419;28;20030;-73
2021/12/17 00:08:51;;;;;;;29.92;11.88;;;;;;;;;;4970400;28;20034;-73
2021/12/17 00:11:19;;;;;;;36.27;12.13;;;;;;;;;;4970411;28;20494;-74
2021/12/17 00:13:46;;;;;;;25.17;11.03;;;;;;;;;;4970582;28;20031;-73
2021/12/17 00:16:17;;;;;;;29.00;11.27;;;;;;;;;;4985211;28;20326;-74
2021/12/17 00:48:42;;;;;;;25.27;10.70;;;;;;;;;;4970365;28;20122;-72
2021/12/17 00:53:43;;;;;;;32.83;10.20;;;;;;;;;;4971843;28;20085;-73
2021/12/17 00:56:09;;;;;;;27.50;11.20;;;;;;;;;;4972359;28;20034;-72
2021/12/17 00:58:34;;;;;;;25.07;10.10;;;;;;;;;;4973401;28;20026;-73
2021/12/17 01:01:00;;;;;;;35.30;11.50;;;;;;;;;;4973719;28;20494;-73
2021/12/17 01:03:26;;;;;;;28.47;10.77;;;;;;;;;;4973472;28;20031;-73
2021/12/17 01:05:51;;;;;;;36.00;11.83;;;;;;;;;;4972112;28;20043;-73
2021/12/17 01:08:17;;;;;;;31.70;10.63;;;;;;;;;;4972453;28;20109;-73
2021/12/17 01:10:48;;;;;;;24.00;9.97;;;;;;;;;;4973072;28;20161;-74
2021/12/17 01:13:14;;;;;;;24.53;9.37;;;;;;;;;;4971834;28;20038;-73
2021/12/17 01:15:42;;;;;;;27.40;10.57;;;;;;;;;;4973061;28;20030;-73
2021/12/17 01:18:16;;;;;;;32.50;10.27;;;;;;;;;;4971948;28;20379;-73
2021/12/17 01:23:48;;;;;;;28.43;9.97;;;;;;;;;;4973413;28;20037;-72
2021/12/17 01:37:03;;;;;;;31.83;9.77;;;;;;;;;;4972748;28;20115;-73
2021/12/17 01:40:38;;;;;;;28.50;10.17;;;;;;;;;;4971236;28;20046;-74
2021/12/17 01:42:23;;;;;;;24.50;10.33;;;;;;;;;;4972733;28;20034;-73
2021/12/17 01:44:49;;;;;;;31.43;11.07;;;;;;;;;;4971122;28;20036;-73
2021/12/17 01:47:15;;;;;;;26.70;9.90;;;;;;;;;;4971418;28;20035;-73
2021/12/17 02:00:22;;;;;;;33.83;11.23;;;;;;;;;;4972434;28;20120;-73
2021/12/17 02:02:54;;;;;;;27.80;9.87;;;;;;;;;;4971077;28;20463;-74
2021/12/17 02:05:20;;;;;;;29.05;10.50;;;;;;;;;;4971551;28;20390;-73
2021/12/17 02:07:48;;;;;;;29.53;9.93;;;;;;;;;;4970578;28;20035;-73
2021/12/17 02:31:38;;;;;;;32.20;10.50;;;;;;;;;;4974234;28;20031;-73
2021/12/17 02:37:06;;;;;;;28.93;11.33;;;;;;;;;;4978112;28;20495;-72
2021/12/17 02:42:40;;;;;;;25.67;10.60;;;;;;;;;;4972660;28;20134;-73
2021/12/17 02:48:08;;;;;;;28.17;11.20;;;;;;;;;;4972027;28;20038;-74
2021/12/17 02:50:39;;;;;;;32.88;11.18;;;;;;;;;;4971811;28;20134;-73
2021/12/17 02:53:09;;;;;;;32.13;10.43;;;;;;;;;;4970514;28;20239;-74
2021/12/17 02:55:44;;;;;;;34.13;12.13;;;;;;;;;;4971343;28;20034;-72
2021/12/17 02:58:10;;;;;;;30.93;9.83;;;;;;;;;;4970098;28;20033;-73
2021/12/17 03:00:38;;;;;;;24.83;9.57;;;;;;;;;;4971056;28;20022;-73
2021/12/17 03:03:06;;;;;;;29.87;11.53;;;;;;;;;;4971297;28;20031;-74
2021/12/17 03:05:33;;;;;;;27.67;10.87;;;;;;;;;;4970132;28;20066;-73
2021/12/17 03:07:59;;;;;;;31.13;10.97;;;;;;;;;;4971302;28;20112;-71
2021/12/17 03:10:25;;;;;;;29.13;12.03;;;;;;;;;;4970161;28;20041;-73
2021/12/17 03:12:57;;;;;;;28.90;11.57;;;;;;;;;;4971128;28;20026;-73
2021/12/17 03:25:52;;;;;;;26.67;10.87;;;;;;;;;;4985746;28;20467;-73
2021/12/17 03:28:18;;;;;;;30.17;11.17;;;;;;;;;;4970972;28;20031;-72
2021/12/17 03:30:45;;;;;;;36.70;11.47;;;;;;;;;;4969336;28;20026;-73
2021/12/17 03:33:11;;;;;;;31.23;11.57;;;;;;;;;;4970897;28;20023;-72
2021/12/17 03:35:37;;;;;;;33.23;11.63;;;;;;;;;;4969514;28;20030;-73
2021/12/17 03:38:02;;;;;;;32.57;10.40;;;;;;;;;;4969085;28;20062;-73
2021/12/17 03:40:31;;;;;;;30.20;11.37;;;;;;;;;;4970853;28;20023;-73
2021/12/17 03:43:02;;;;;;;29.20;10.93;;;;;;;;;;4969029;28;20030;-73
2021/12/17 03:45:27;;;;;;;30.90;12.33;;;;;;;;;;4985315;28;20034;-73
2021/12/17 03:47:53;;;;;;;29.37;11.73;;;;;;;;;;4968959;28;20621;-73
2021/12/17 03:50:19;;;;;;;29.27;10.47;;;;;;;;;;4969307;28;20573;-73
2021/12/17 03:52:45;;;;;;;33.10;12.37;;;;;;;;;;4968845;28;20231;-74
2021/12/17 03:55:10;;;;;;;33.97;11.67;;;;;;;;;;4969461;28;20030;-73
2021/12/17 03:57:37;;;;;;;38.23;12.00;;;;;;;;;;4970807;28;20031;-73
2021/12/17 04:00:08;;;;;;;31.87;10.70;;;;;;;;;;4969156;28;20038;-73
2021/12/17 04:02:34;;;;;;;28.30;10.52;;;;;;;;;;4970490;28;20498;-73
2021/12/17 04:05:01;;;;;;;26.63;10.70;;;;;;;;;;4970375;28;20034;-73
2021/12/17 04:07:26;;;;;;;33.27;11.27;;;;;;;;;;4969219;28;20172;-73
2021/12/17 04:09:52;;;;;;;32.73;12.17;;;;;;;;;;4970325;28;20176;-73
2021/12/17 04:12:20;;;;;;;30.03;11.03;;;;;;;;;;4969097;28;20035;-72
2021/12/17 04:14:48;;;;;;;31.57;10.83;;;;;;;;;;4985106;28;20027;-73
2021/12/17 04:17:22;;;;;;;32.33;13.00;;;;;;;;;;4970406;28;20344;-73
2021/12/17 04:19:47;;;;;;;32.43;10.50;;;;;;;;;;4969003;28;20034;-73
2021/12/17 04:22:13;;;;;;;28.07;10.43;;;;;;;;;;4969363;28;20030;-73
2021/12/17 04:24:39;;;;;;;32.63;11.23;;;;;;;;;;4970556;28;20035;-73
2021/12/17 04:27:06;;;;;;;37.77;12.07;;;;;;;;;;4969073;28;20044;-73
2021/12/17 04:29:32;;;;;;;30.77;11.13;;;;;;;;;;4973386;28;20057;-73
2021/12/17 04:31:58;;;;;;;36.10;12.67;;;;;;;;;;4973942;28;20037;-72
2021/12/17 04:34:24;;;;;;;32.47;12.63;;;;;;;;;;4972785;28;20027;-73
2021/12/17 04:36:52;;;;;;;28.57;11.67;;;;;;;;;;4972479;28;20099;-73
2021/12/17 04:39:19;;;;;;;31.13;12.60;;;;;;;;;;4972405;28;20133;-73
2021/12/17 04:42:01;;;;;;;42.37;12.33;;;;;;;;;;4973812;28;20027;-73
2021/12/17 04:44:31;;;;;;;33.93;11.37;;;;;;;;;;4974249;28;20031;-73
2021/12/17 04:57:57;;;;;;;33.33;12.57;;;;;;;;;;4974272;28;20041;-73
2021/12/17 05:00:26;;;;;;;32.70;11.40;;;;;;;;;;4972436;28;20038;-73
2021/12/17 05:02:55;;;;;;;28.83;10.50;;;;;;;;;;4972190;28;20097;-73
2021/12/17 05:05:26;;;;;;;32.07;11.50;;;;;;;;;;4973559;28;20053;-73
2021/12/17 05:07:56;;;;;;;32.80;11.87;;;;;;;;;;4972038;28;20034;-73
2021/12/17 05:20:54;;;;;;;32.23;12.43;;;;;;;;;;4973630;28;20034;-73
2021/12/17 05:23:25;;;;;;;25.97;10.90;;;;;;;;;;4973238;28;20038;-73
2021/12/17 05:25:55;;;;;;;35.37;12.27;;;;;;;;;;4971592;28;20030;-73
2021/12/17 05:28:21;;;;;;;28.57;11.23;;;;;;;;;;4973394;28;20042;-73
2021/12/17 05:30:48;;;;;;;23.83;10.10;;;;;;;;;;4971494;28;20466;-73
2021/12/17 05:33:19;;;;;;;27.83;11.03;;;;;;;;;;4971617;28;20054;-73
2021/12/17 05:35:46;;;;;;;30.65;11.90;;;;;;;;;;4972734;28;20027;-74
2021/12/17 05:38:12;;;;;;;33.70;11.70;;;;;;;;;;4972705;28;20078;-74
2021/12/17 05:40:39;;;;;;;40.70;12.30;;;;;;;;;;4970530;28;20023;-73
2021/12/17 05:43:06;;;;;;;27.93;11.00;;;;;;;;;;4971452;28;20065;-73
2021/12/17 05:45:37;;;;;;;26.90;11.47;;;;;;;;;;4971649;28;20436;-74
2021/12/17 05:48:06;;;;;;;28.05;10.25;;;;;;;;;;4972828;28;20256;-74
2021/12/17 05:50:34;;;;;;;32.67;11.63;;;;;;;;;;4971430;28;20057;-73
2021/12/17 05:53:01;;;;;;;26.53;11.67;;;;;;;;;;4987327;28;20042;-74
2021/12/17 05:55:27;;;;;;;32.33;13.10;;;;;;;;;;4971048;28;20113;-74
2021/12/17 05:57:53;;;;;;;33.90;11.97;;;;;;;;;;4970382;28;20505;-72
2021/12/17 06:00:20;;;;;;;38.50;12.77;;;;;;;;;;4965548;28;20027;-74
2021/12/17 06:02:45;;;;;;;34.23;11.80;;;;;;;;;;4969974;28;20027;-75
2021/12/17 06:05:11;;;;;;;35.23;12.97;;;;;;;;;;4971842;28;20112;-73
2021/12/17 06:07:37;;;;;;;31.37;12.97;;;;;;;;;;4972030;28;20046;-75
2021/12/17 06:10:05;;;;;;;24.80;10.40;;;;;;;;;;4971961;28;20038;-74
2021/12/17 06:12:31;;;;;;;35.17;14.07;;;;;;;;;;4967804;28;20123;-74
2021/12/17 06:14:57;;;;;;;30.50;13.03;;;;;;;;;;4957094;28;20064;-73
2021/12/17 06:17:23;;;;;;;31.47;12.70;;;;;;;;;;4968420;28;20045;-72
2021/12/17 06:19:48;;;;;;;37.23;12.63;;;;;;;;;;4960464;28;20026;-73
2021/12/17 06:22:15;;;;;;;35.73;12.40;;;;;;;;;;4951780;28;20531;-73
2021/12/17 06:24:44;;;;;;;30.83;13.37;;;;;;;;;;4952166;28;20019;-73
2021/12/17 06:27:12;;;;;;;34.80;12.47;;;;;;;;;;4952615;28;20068;-73
2021/12/17 06:29:38;;;;;;;29.83;12.13;;;;;;;;;;4951402;29;20027;-72
2021/12/17 06:32:04;;;;;;;30.70;13.57;;;;;;;;;;4950497;29;20501;-73
2021/12/17 06:34:30;;;;;;;31.93;11.47;;;;;;;;;;4951332;28;20027;-78
2021/12/17 06:36:56;;;;;;;49.37;15.77;;;;;;;;;;4952107;28;20023;-74
2021/12/17 06:39:21;;;;;;;35.63;13.23;;;;;;;;;;4956565;28;20637;-74
2021/12/17 06:41:47;;;;;;;34.50;13.07;;;;;;;;;;4971647;28;20035;-74
2021/12/17 06:44:16;;;;;;;31.30;13.47;;;;;;;;;;4971063;28;20030;-75
2021/12/17 06:49:24;;;;;;;36.33;13.27;;;;;;;;;;4971026;28;20113;-74
2021/12/17 07:32:43;;;;;;;36.97;13.37;;;;;;;;;;4970438;28;20106;-73
2021/12/17 07:34:50;;;;;;;36.33;14.53;;;;;;;;;;4973408;28;20129;-73
2021/12/17 07:39:42;;;;;;;35.20;14.37;;;;;;;;;;4966601;28;20055;-74
2021/12/17 07:42:07;;;;;;;36.83;13.50;;;;;;;;;;4965789;28;20097;-72
2021/12/17 07:44:33;;;;;;;40.57;14.60;;;;;;;;;;4965939;28;20467;-74
2021/12/17 07:46:58;;;;;;;38.43;13.73;;;;;;;;;;4967357;28;20023;-73
2021/12/17 07:49:24;;;;;;;38.57;13.63;;;;;;;;;;4967586;28;20579;-73
2021/12/17 07:51:50;;;;;;;39.40;15.70;;;;;;;;;;4962849;28;20383;-72
2021/12/17 07:54:16;;;;;;;40.77;14.27;;;;;;;;;;4966382;28;20060;-73
2021/12/17 07:56:41;;;;;;;37.73;14.17;;;;;;;;;;4952481;28;20035;-74
2021/12/17 07:59:09;;;;;;;46.53;13.87;;;;;;;;;;4947819;28;20038;-72
2021/12/17 08:01:36;;;;;;;49.50;14.50;;;;;;;;;;4952955;28;20031;-73
2021/12/17 08:04:06;;;;;;;38.70;15.13;;;;;;;;;;4955777;28;20104;-73
2021/12/17 08:06:33;;;;;;;39.60;15.47;;;;;;;;;;4961433;28;20043;-72
2021/12/17 08:08:59;;;;;;;51.63;15.37;;;;;;;;;;4963814;28;20027;-73
2021/12/17 08:11:25;;;;;;;35.23;14.87;;;;;;;;;;4956371;28;20418;-73
2021/12/17 08:13:53;;;;;;;43.67;15.53;;;;;;;;;;4943750;28;20815;-73
2021/12/17 08:16:33;;;;;;;43.60;16.33;;;;;;;;;;4967577;28;20058;-73
2021/12/17 08:26:57;;;;;;;35.03;12.93;;;;;;;;;;4960154;28;20039;-73
2021/12/17 08:31:55;;;;;;;40.13;14.33;;;;;;;;;;4956301;28;20360;-73
2021/12/17 08:34:21;;;;;;;31.13;11.93;;;;;;;;;;4959510;28;20093;-73
2021/12/17 08:36:47;;;;;;;29.80;12.87;;;;;;;;;;4963019;28;20027;-72
2021/12/17 08:39:13;;;;;;;36.13;13.57;;;;;;;;;;4963049;28;20054;-72
2021/12/17 08:41:40;;;;;;;32.60;12.80;;;;;;;;;;4957813;28;20035;-71
2021/12/17 08:44:06;;;;;;;27.90;12.83;;;;;;;;;;4963208;28;20150;-74
2021/12/17 08:46:32;;;;;;;36.27;13.57;;;;;;;;;;4963591;28;20110;-72
2021/12/17 08:48:58;;;;;;;27.70;12.83;;;;;;;;;;4962699;28;20526;-74
2021/12/17 08:51:24;;;;;;;32.57;12.70;;;;;;;;;;4961143;28;20035;-73
2021/12/17 08:53:50;;;;;;;30.30;13.30;;;;;;;;;;4967782;28;20027;-72
2021/12/17 08:56:19;;;;;;;30.43;13.70;;;;;;;;;;4968705;28;20031;-74
2021/12/17 08:58:47;;;;;;;38.13;15.00;;;;;;;;;;4964233;28;20023;-72
2021/12/17 09:01:12;;;;;;;35.03;13.23;;;;;;;;;;4973963;28;20560;-72
2021/12/17 09:03:38;;;;;;;34.30;13.80;;;;;;;;;;4958894;28;20023;-72
2021/12/17 09:06:04;;;;;;;41.43;13.90;;;;;;;;;;4964750;28;20176;-72
2021/12/17 09:08:30;;;;;;;39.70;13.97;;;;;;;;;;4945340;28;20089;-73
2021/12/17 09:10:56;;;;;;;40.70;14.03;;;;;;;;;;4960129;28;20035;-72
2021/12/17 09:13:26;;;;;;;38.13;14.20;;;;;;;;;;4960020;28;20035;-74
2021/12/17 09:15:58;;;;;;;35.40;13.00;;;;;;;;;;4971673;28;20031;-74
2021/12/17 09:18:24;;;;;;;45.22;15.23;;;;;;;;;;4969667;28;20443;-72
2021/12/17 09:20:50;;;;;;;39.30;13.80;;;;;;;;;;4955096;28;20138;-72
2021/12/17 09:23:16;;;;;;;47.00;13.93;;;;;;;;;;4962284;28;20134;-74
2021/12/17 09:25:43;;;;;;;38.67;14.80;;;;;;;;;;4959408;28;20485;-74
2021/12/17 09:28:09;;;;;;;44.77;15.13;;;;;;;;;;4953858;28;20104;-72
2021/12/17 09:30:35;;;;;;;47.47;17.87;;;;;;;;;;4957425;28;20055;-73
2021/12/17 09:33:01;;;;;;;44.97;14.60;;;;;;;;;;4956823;28;20035;-73
2021/12/17 09:35:26;;;;;;;61.07;16.90;;;;;;;;;;4955572;28;20031;-73
2021/12/17 09:37:53;;;;;;;30.37;13.83;;;;;;;;;;4955099;28;20039;-73
2021/12/17 09:40:19;;;;;;;30.77;11.43;;;;;;;;;;4960036;28;20023;-74
2021/12/17 09:42:45;;;;;;;35.97;13.43;;;;;;;;;;4956137;28;20027;-73
2021/12/17 09:45:13;;;;;;;26.50;10.23;;;;;;;;;;4954791;28;20050;-75
2021/12/17 09:47:42;;;;;;;28.73;10.40;;;;;;;;;;4955024;28;20117;-72
2021/12/17 09:50:10;;;;;;;31.87;11.37;;;;;;;;;;4954948;28;20038;-72
2021/12/17 09:52:36;;;;;;;30.93;11.80;;;;;;;;;;4956578;28;20026;-73
2021/12/17 09:55:07;;;;;;;28.23;11.03;;;;;;;;;;4956597;28;20027;-72
2021/12/17 09:57:36;;;;;;;30.23;11.20;;;;;;;;;;4946330;28;20180;-73
2021/12/17 10:00:09;;;;;;;24.20;10.20;;;;;;;;;;4959480;28;20049;-73
2021/12/17 10:02:35;;;;;;;28.73;11.07;;;;;;;;;;4954325;28;20070;-73
2021/12/17 10:05:01;;;;;;;27.90;11.27;;;;;;;;;;4957629;28;20042;-74
2021/12/17 10:07:29;;;;;;;24.40;10.30;;;;;;;;;;4958500;28;20450;-75
2021/12/17 10:10:00;;;;;;;34.23;10.97;;;;;;;;;;4955510;28;20034;-75
2021/12/17 10:12:29;;;;;;;25.40;10.47;;;;;;;;;;4951385;28;20045;-74
2021/12/17 10:15:02;;;;;;;32.23;13.03;;;;;;;;;;4959260;28;20035;-73
2021/12/17 10:17:28;;;;;;;27.13;10.33;;;;;;;;;;4963436;28;20026;-74
2021/12/17 10:19:54;;;;;;;25.70;10.50;;;;;;;;;;4939845;28;20031;-74
2021/12/17 10:22:21;;;;;;;34.33;12.30;;;;;;;;;;4955425;28;20031;-76
2021/12/17 10:25:08;;;;;;;30.50;10.50;;;;;;;;;;4957090;28;21014;-73
2021/12/17 10:27:37;;;;;;;27.00;10.23;;;;;;;;;;4956417;28;20400;-74
2021/12/17 10:30:16;;;;;;;27.17;9.90;;;;;;;;;;4971996;28;20038;-74
2021/12/17 10:32:48;;;;;;;31.10;12.13;;;;;;;;;;4956811;28;20030;-74
2021/12/17 10:35:17;;;;;;;34.30;10.32;;;;;;;;;;4957154;28;20034;-75
2021/12/17 10:37:55;;;;;;;27.77;11.10;;;;;;;;;;4953849;28;20116;-74
2021/12/17 10:40:23;;;;;;;33.50;11.47;;;;;;;;;;4956136;28;20118;-75
2021/12/17 10:43:00;;;;;;;31.90;10.33;;;;;;;;;;4952399;28;20071;-74
2021/12/17 10:45:29;;;;;;;33.70;11.23;;;;;;;;;;4954802;28;20461;-73
2021/12/17 10:48:27;;;;;;;27.00;11.47;;;;;;;;;;4954302;28;20034;-74
2021/12/17 10:51:31;;;;;;;25.50;11.13;;;;;;;;;;4953335;28;20118;-74
2021/12/17 10:54:05;;;;;;;25.90;9.37;;;;;;;;;;4956653;28;20045;-74
2021/12/17 10:56:35;;;;;;;29.17;9.50;;;;;;;;;;4956479;28;20437;-73
2021/12/17 10:59:06;;;;;;;35.13;11.10;;;;;;;;;;4955104;28;20041;-75
2021/12/17 11:01:48;;;;;;;24.27;9.68;;;;;;;;;;4951382;28;20185;-73
2021/12/17 11:04:23;;;;;;;26.85;9.48;;;;;;;;;;4954448;28;20042;-75
2021/12/17 11:07:04;;;;;;;27.27;9.53;;;;;;;;;;4953609;28;20050;-74
2021/12/17 11:09:49;;;;;;;21.15;9.27;;;;;;;;;;4958553;28;20049;-75
2021/12/17 11:12:29;;;;;;;24.30;8.40;;;;;;;;;;4955844;28;20047;-74
2021/12/17 11:15:18;;;;;;;26.27;10.97;;;;;;;;;;4958831;28;20591;-74
2021/12/17 11:17:47;;;;;;;28.90;8.70;;;;;;;;;;4958266;28;20113;-73
2021/12/17 11:20:21;;;;;;;24.03;9.50;;;;;;;;;;4960911;28;20170;-74
2021/12/17 11:22:51;;;;;;;28.73;8.90;;;;;;;;;;4955755;28;20027;-74
2021/12/17 11:25:19;;;;;;;25.73;9.03;;;;;;;;;;4957892;28;20117;-74
2021/12/17 11:27:45;;;;;;;32.20;12.97;;;;;;;;;;4959905;28;20066;-73
2021/12/17 11:30:18;;;;;;;22.27;9.43;;;;;;;;;;4966195;28;20456;-74
2021/12/17 11:32:46;;;;;;;36.73;11.07;;;;;;;;;;4959728;28;20134;-73
2021/12/17 11:35:13;;;;;;;25.90;11.30;;;;;;;;;;4954508;28;20035;-73
2021/12/17 11:37:42;;;;;;;26.50;9.97;;;;;;;;;;4956672;28;20074;-73
2021/12/17 11:40:17;;;;;;;35.53;12.00;;;;;;;;;;4952321;28;20519;-74
2021/12/17 11:42:55;;;;;;;26.07;10.73;;;;;;;;;;4953783;28;20042;-72
2021/12/17 11:45:28;;;;;;;33.90;10.00;;;;;;;;;;4955717;28;20129;-74
2021/12/17 11:48:09;;;;;;;35.60;11.20;;;;;;;;;;4938686;28;20041;-74
2021/12/17 11:50:35;;;;;;;23.93;9.80;;;;;;;;;;4956986;28;20041;-75
2021/12/17 11:53:19;;;;;;;24.73;9.93;;;;;;;;;;4956186;28;20273;-74
2021/12/17 11:55:55;;;;;;;23.73;11.37;;;;;;;;;;4954347;28;20030;-74
2021/12/17 11:58:52;;;;;;;22.10;9.03;;;;;;;;;;4950783;28;20455;-74
2021/12/17 12:01:47;;;;;;;30.47;9.57;;;;;;;;;;4951806;28;20684;-73
2021/12/17 12:04:31;;;;;;;22.83;9.47;;;;;;;;;;4949717;28;20090;-74
2021/12/17 12:07:13;;;;;;;28.07;9.37;;;;;;;;;;4968420;28;20104;-74
2021/12/17 12:09:59;;;;;;;25.00;10.93;;;;;;;;;;4953140;28;20031;-73
2021/12/17 12:12:34;;;;;;;27.57;9.67;;;;;;;;;;4949361;28;20153;-74
2021/12/17 12:15:31;;;;;;;31.13;10.50;;;;;;;;;;4952715;28;20048;-73
2021/12/17 12:18:17;;;;;;;26.90;9.57;;;;;;;;;;4940699;28;20046;-73
2021/12/17 12:23:23;;;;;;;27.03;10.20;;;;;;;;;;4950680;28;20039;-75
2021/12/17 12:26:04;;;;;;;30.67;8.47;;;;;;;;;;4956749;28;20561;-73
2021/12/17 12:28:45;;;;;;;28.50;9.43;;;;;;;;;;4957829;28;20123;-74
2021/12/17 12:31:17;;;;;;;27.47;8.87;;;;;;;;;;4952316;28;20046;-73
2021/12/17 12:34:07;;;;;;;32.58;9.35;;;;;;;;;;4954955;28;20026;-76
2021/12/17 12:36:44;;;;;;;31.57;9.47;;;;;;;;;;4951991;28;20113;-74
2021/12/17 12:39:29;;;;;;;27.60;8.77;;;;;;;;;;4968869;28;20051;-74
2021/12/17 12:42:17;;;;;;;21.27;8.27;;;;;;;;;;4949970;28;20065;-73
2021/12/17 12:44:43;;;;;;;29.67;8.97;;;;;;;;;;4954123;28;20515;-74
2021/12/17 12:47:10;;;;;;;29.10;9.87;;;;;;;;;;4953611;28;20490;-78
2021/12/17 12:49:45;;;;;;;26.50;8.70;;;;;;;;;;4952860;28;20026;-74
2021/12/17 12:52:45;;;;;;;25.73;8.43;;;;;;;;;;4955433;28;20037;-75
2021/12/17 12:55:33;;;;;;;24.60;7.93;;;;;;;;;;4965699;28;20146;-73
2021/12/17 12:57:59;;;;;;;23.40;9.47;;;;;;;;;;4955587;28;20030;-74
2021/12/17 13:00:28;;;;;;;30.00;9.90;;;;;;;;;;4956179;28;20054;-73
2021/12/17 13:02:58;;;;;;;24.07;9.10;;;;;;;;;;4954938;28;20034;-75
2021/12/17 13:05:24;;;;;;;27.03;10.37;;;;;;;;;;4968643;28;20186;-75
2021/12/17 13:07:54;;;;;;;23.87;10.13;;;;;;;;;;4971008;28;20130;-74
2021/12/17 13:10:29;;;;;;;29.93;10.33;;;;;;;;;;4967969;28;20420;-73
2021/12/17 13:12:58;;;;;;;23.50;8.77;;;;;;;;;;4965299;28;20031;-73
2021/12/17 13:24:07;;;;;;;31.83;13.70;;;;;;;;;;4966101;28;20049;-75
2021/12/17 13:26:33;;;;;;;28.70;10.43;;;;;;;;;;4965482;28;20125;-75
2021/12/17 13:29:10;;;;;;;39.13;12.40;;;;;;;;;;4966898;28;20193;-74
2021/12/17 13:31:49;;;;;;;26.97;11.40;;;;;;;;;;4959115;28;20023;-73
2021/12/17 13:34:27;;;;;;;27.40;10.10;;;;;;;;;;4960374;28;20479;-76
2021/12/17 13:36:57;;;;;;;32.57;10.57;;;;;;;;;;4945951;28;20031;-76
2021/12/17 13:39:26;;;;;;;23.60;10.20;;;;;;;;;;4981829;28;20081;-74
2021/12/17 13:41:52;;;;;;;38.87;10.60;;;;;;;;;;4968557;28;20081;-75
2021/12/17 13:44:30;;;;;;;48.93;16.50;;;;;;;;;;4967306;28;20120;-75
2021/12/17 13:47:09;;;;;;;25.33;9.83;;;;;;;;;;4966722;28;20023;-74
2021/12/17 13:49:35;;;;;;;30.43;10.33;;;;;;;;;;4969110;28;20038;-75
2021/12/17 13:52:01;;;;;;;29.17;10.97;;;;;;;;;;4972396;28;20029;-75
2021/12/17 13:54:27;;;;;;;25.70;10.77;;;;;;;;;;4974860;28;20073;-74
2021/12/17 13:56:57;;;;;;;50.80;14.93;;;;;;;;;;4966849;28;20120;-74
2021/12/17 13:59:31;;;;;;;36.87;11.67;;;;;;;;;;4963307;28;20029;-74
2021/12/17 14:01:57;;;;;;;31.60;10.70;;;;;;;;;;4963790;28;20063;-74
2021/12/17 14:04:23;;;;;;;29.00;9.90;;;;;;;;;;4967028;28;20073;-75
2021/12/17 14:06:53;;;;;;;28.70;10.93;;;;;;;;;;4961459;28;20487;-74
2021/12/17 14:09:20;;;;;;;25.93;10.10;;;;;;;;;;4966904;28;20026;-74
2021/12/17 14:11:46;;;;;;;29.53;11.20;;;;;;;;;;4958549;28;20082;-74
2021/12/17 14:14:26;;;;;;;24.40;9.57;;;;;;;;;;4956297;28;20027;-74
2021/12/17 14:16:57;;;;;;;34.53;11.07;;;;;;;;;;4961503;28;20581;-75
2021/12/17 14:19:44;;;;;;;40.43;11.80;;;;;;;;;;4968070;28;20044;-75
2021/12/17 14:22:27;;;;;;;27.43;10.97;;;;;;;;;;4970006;28;20206;-73
2021/12/17 14:24:56;;;;;;;35.17;12.40;;;;;;;;;;4968617;28;20026;-74
2021/12/17 14:27:22;;;;;;;29.43;11.53;;;;;;;;;;4969596;28;20034;-75
2021/12/17 14:30:02;;;;;;;32.07;11.33;;;;;;;;;;4958742;28;20022;-75
2021/12/17 14:32:29;;;;;;;38.37;13.37;;;;;;;;;;4957004;28;20216;-76
2021/12/17 14:34:54;;;;;;;34.80;12.73;;;;;;;;;;4963053;28;20034;-75
2021/12/17 14:37:20;;;;;;;37.07;12.20;;;;;;;;;;4958974;28;20026;-77
2021/12/17 14:39:48;;;;;;;56.17;16.47;;;;;;;;;;4967052;28;20407;-74
2021/12/17 14:42:30;;;;;;;30.60;11.37;;;;;;;;;;4959395;28;20499;-74
2021/12/17 14:44:59;;;;;;;;;;;;;;;;;;4963654;28;20430;-74
2021/12/17 14:47:32;;;;;;;31.80;10.00;;;;;;;;;;4966407;28;19925;-74
2021/12/17 15:06:01;;;;;;;28.90;10.75;;;;;;;;;;4960078;28;20630;-74
2021/12/17 15:08:27;;;;;;;32.53;10.93;;;;;;;;;;4968204;28;20023;-74
2021/12/17 15:10:54;;;;;;;23.07;10.00;;;;;;;;;;4964174;28;20030;-75
2021/12/17 15:13:19;;;;;;;28.73;11.57;;;;;;;;;;4967066;28;20038;-75
2021/12/17 15:15:46;;;;;;;41.17;13.73;;;;;;;;;;4969965;28;20019;-75
2021/12/17 15:18:15;;;;;;;29.23;10.10;;;;;;;;;;4966981;28;20038;-75
2021/12/17 15:20:46;;;;;;;28.87;9.97;;;;;;;;;;4954689;28;20030;-74
2021/12/17 15:23:12;;;;;;;29.30;10.20;;;;;;;;;;4968884;28;20057;-74
2021/12/17 15:25:39;;;;;;;35.73;11.93;;;;;;;;;;4955729;28;20433;-74
2021/12/17 15:28:06;;;;;;;29.33;11.33;;;;;;;;;;4963011;28;20030;-75
2021/12/17 15:30:43;;;;;;;30.23;10.37;;;;;;;;;;4961481;28;20034;-75
2021/12/17 15:33:10;;;;;;;31.33;11.47;;;;;;;;;;4970562;28;20216;-75
2021/12/17 15:35:38;;;;;;;30.00;10.50;;;;;;;;;;4955803;28;20031;-74
2021/12/17 15:38:07;;;;;;;22.60;10.43;;;;;;;;;;4968204;28;20070;-74
2021/12/17 15:40:37;;;;;;;28.57;10.47;;;;;;;;;;4968641;28;20026;-73
2021/12/17 15:43:03;;;;;;;30.60;11.13;;;;;;;;;;4949437;29;20035;-73
2021/12/17 15:45:34;;;;;;;22.53;10.87;;;;;;;;;;4954770;28;20463;-73
2021/12/17 15:47:59;;;;;;;31.27;12.03;;;;;;;;;;4969629;28;20037;-74
2021/12/17 15:50:25;;;;;;;32.87;10.93;;;;;;;;;;4966344;28;20447;-74
2021/12/17 15:52:51;;;;;;;31.67;10.70;;;;;;;;;;4965672;28;20027;-74
2021/12/17 15:55:20;;;;;;;31.40;11.80;;;;;;;;;;4969206;28;20030;-75
2021/12/17 15:57:46;;;;;;;23.17;11.33;;;;;;;;;;4970804;28;20034;-74
2021/12/17 16:00:15;;;;;;;29.30;11.33;;;;;;;;;;4970219;28;20026;-75
2021/12/17 16:02:42;;;;;;;39.17;12.43;;;;;;;;;;4969524;28;20085;-75
2021/12/17 16:05:10;;;;;;;32.67;11.67;;;;;;;;;;4969147;28;20022;-74
2021/12/17 16:07:36;;;;;;;36.93;14.63;;;;;;;;;;4969465;28;20031;-73
2021/12/17 16:18:16;;;;;;;36.37;16.10;;;;;;;;;;4969891;28;20391;-75
2021/12/17 16:21:03;;;;;;;29.33;10.70;;;;;;;;;;4969554;28;20385;-76
2021/12/17 16:23:32;;;;;;;30.90;11.23;;;;;;;;;;4969028;28;20038;-74
2021/12/17 16:25:59;;;;;;;29.30;11.80;;;;;;;;;;4972375;28;20035;-74
2021/12/17 16:28:26;;;;;;;30.93;11.77;;;;;;;;;;4973118;28;20057;-75
2021/12/17 16:30:51;;;;;;;24.93;11.03;;;;;;;;;;4974550;28;20317;-75
2021/12/17 16:33:17;;;;;;;32.13;13.40;;;;;;;;;;4974117;28;20023;-74
2021/12/17 16:35:42;;;;;;;37.87;15.13;;;;;;;;;;4974445;28;20656;-74
2021/12/17 16:38:08;;;;;;;29.27;12.43;;;;;;;;;;4956408;28;20058;-75
2021/12/17 16:40:34;;;;;;;33.73;13.03;;;;;;;;;;4974726;28;20037;-74
2021/12/17 16:43:00;;;;;;;28.00;10.83;;;;;;;;;;4974240;28;20569;-74
2021/12/17 16:45:32;;;;;;;23.87;10.63;;;;;;;;;;4973865;28;20610;-74
2021/12/17 16:48:04;;;;;;;30.58;12.00;;;;;;;;;;4972655;28;20383;-74
2021/12/17 16:50:31;;;;;;;28.30;11.70;;;;;;;;;;4974080;28;20062;-76
2021/12/17 16:52:58;;;;;;;28.83;12.00;;;;;;;;;;4972141;28;20130;-75
2021/12/17 16:55:23;;;;;;;47.20;12.70;;;;;;;;;;4972083;28;20101;-73
2021/12/17 16:57:49;;;;;;;27.97;12.60;;;;;;;;;;4973383;28;20498;-75
2021/12/17 17:00:15;;;;;;;27.63;11.93;;;;;;;;;;4972101;28;20031;-74
2021/12/17 17:02:40;;;;;;;30.40;13.13;;;;;;;;;;4974097;28;20061;-75
2021/12/17 17:05:07;;;;;;;29.20;12.13;;;;;;;;;;4971853;28;20023;-75
2021/12/17 17:07:33;;;;;;;27.10;12.17;;;;;;;;;;4972179;28;20093;-75
2021/12/17 17:10:00;;;;;;;33.23;12.77;;;;;;;;;;4973117;28;20054;-74
2021/12/17 17:12:29;;;;;;;32.07;12.43;;;;;;;;;;4973359;28;20027;-74
2021/12/17 17:14:55;;;;;;;32.90;14.60;;;;;;;;;;4956868;28;20319;-75
2021/12/17 17:17:20;;;;;;;27.83;12.37;;;;;;;;;;4973467;28;20045;-75
2021/12/17 17:19:46;;;;;;;33.17;14.43;;;;;;;;;;4971765;28;20031;-73
2021/12/17 17:22:14;;;;;;;29.73;12.70;;;;;;;;;;4973485;28;20027;-75
2021/12/17 17:24:42;;;;;;;34.53;13.77;;;;;;;;;;4972981;28;20037;-75
2021/12/17 17:27:08;;;;;;;32.57;12.97;;;;;;;;;;4971440;28;20093;-75
2021/12/17 17:29:34;;;;;;;35.57;13.40;;;;;;;;;;4987952;28;20796;-74
2021/12/17 17:31:59;;;;;;;32.07;13.10;;;;;;;;;;4971674;28;20122;-74
2021/12/17 17:34:27;;;;;;;29.10;13.33;;;;;;;;;;4973401;28;20029;-75
2021/12/17 17:36:52;;;;;;;31.73;13.20;;;;;;;;;;4986609;28;20018;-74
2021/12/17 17:39:18;;;;;;;34.97;14.87;;;;;;;;;;4972710;28;20054;-75
2021/12/17 17:41:43;;;;;;;39.80;15.33;;;;;;;;;;4971669;28;20376;-74
2021/12/17 17:44:09;;;;;;;35.10;13.00;;;;;;;;;;4987409;28;20097;-75
2021/12/17 17:46:36;;;;;;;39.73;15.33;;;;;;;;;;4987608;28;20023;-75
2021/12/17 17:49:03;;;;;;;31.23;14.13;;;;;;;;;;4972865;28;20031;-74
2021/12/17 17:51:28;;;;;;;28.73;12.37;;;;;;;;;;4971525;28;20366;-74
2021/12/17 17:53:54;;;;;;;26.60;11.23;;;;;;;;;;4971138;28;20027;-75
2021/12/17 17:56:20;;;;;;;30.43;12.37;;;;;;;;;;4971162;28;20645;-74
2021/12/17 17:58:46;;;;;;;25.87;12.07;;;;;;;;;;4970811;28;20049;-74
2021/12/17 18:01:12;;;;;;;22.83;11.33;;;;;;;;;;4971017;28;20033;-74
2021/12/17 18:03:39;;;;;;;22.67;10.20;;;;;;;;;;4971049;28;20030;-74
2021/12/17 18:06:05;;;;;;;24.20;10.53;;;;;;;;;;4970270;28;20250;-75